sensor_id;sensor_type;location;lat;lon;timestamp;pressure;altitude;pressure_sealevel;temperature;humidity
46614;BME280;32338;50.430;6.806;2023-05-14T00:00:29;66230.19;;;7.47;100.00
46614;BME280;32338;50.430;6.806;2023-05-14T00:02:55;66230.19;;;7.47;100.00
46614;BME280;32338;50.430;6.806;2023-05-14T00:05:23;66223.84;;;7.46;100.00
46614;BME280;32338;50.430;6.806;2023-05-14T00:07:50;66226.59;;;7.42;100.00
46614;BME280;32338;50.430;6.806;2023-05-14T00:10:17;66218.59;;;7.39;100.00
46614;BME280;32338;50.430;6.806;2023-05-14T00:12:44;66212.75;;;7.32;100.00
46614;BME280;32338;50.430;6.806;2023-05-14T00:15:11;66215.56;;;7.34;100.00
46614;BME280;32338;50.430;6.806;2023-05-14T00:17:38;66209.19;;;7.26;100.00
46614;BME280;32338;50.430;6.806;2023-05-14T00:20:05;66208.97;;;7.23;100.00
46614;BME280;32338;50.430;6.806;2023-05-14T00:22:33;66203.97;;;7.26;100.00
46614;BME280;32338;50.430;6.806;2023-05-14T00:25:01;66200.97;;;7.21;100.00
46614;BME280;32338;50.430;6.806;2023-05-14T00:27:27;66196.47;;;7.17;100.00
46614;BME280;32338;50.430;6.806;2023-05-14T00:29:54;66207.31;;;7.22;100.00
46614;BME280;32338;50.430;6.806;2023-05-14T00:32:21;66194.78;;;7.15;100.00
46614;BME280;32338;50.430;6.806;2023-05-14T00:34:47;66203.53;;;7.13;100.00
46614;BME280;32338;50.430;6.806;2023-05-14T00:37:14;66200.75;;;7.18;100.00
46614;BME280;32338;50.430;6.806;2023-05-14T00:39:42;66195.16;;;7.13;100.00
46614;BME280;32338;50.430;6.806;2023-05-14T00:42:09;66192.13;;;7.08;100.00
46614;BME280;32338;50.430;6.806;2023-05-14T00:44:35;66186.72;;;7.05;100.00
46614;BME280;32338;50.430;6.806;2023-05-14T00:47:02;66181.31;;;7.03;100.00
46614;BME280;32338;50.430;6.806;2023-05-14T00:49:29;66179.97;;;6.99;100.00
46614;BME280;32338;50.430;6.806;2023-05-14T00:51:55;66164.25;;;6.85;100.00
46614;BME280;32338;50.430;6.806;2023-05-14T00:54:23;66160.31;;;6.81;100.00
46614;BME280;32338;50.430;6.806;2023-05-14T00:56:51;66164.97;;;6.80;100.00
46614;BME280;32338;50.430;6.806;2023-05-14T00:59:19;66161.81;;;6.80;100.00
46614;BME280;32338;50.430;6.806;2023-05-14T01:01:45;66155.81;;;6.77;100.00
46614;BME280;32338;50.430;6.806;2023-05-14T01:04:12;66159.56;;;6.78;100.00
46614;BME280;32338;50.430;6.806;2023-05-14T01:06:46;66158.84;;;6.82;100.00
46614;BME280;32338;50.430;6.806;2023-05-14T01:09:19;66159.00;;;6.77;100.00
46614;BME280;32338;50.430;6.806;2023-05-14T01:11:54;66142.56;;;6.67;100.00
46614;BME280;32338;50.430;6.806;2023-05-14T01:14:25;66130.00;;;6.53;100.00
46614;BME280;32338;50.430;6.806;2023-05-14T01:16:57;66135.59;;;6.58;100.00
46614;BME280;32338;50.430;6.806;2023-05-14T01:19:28;66133.38;;;6.56;100.00
46614;BME280;32338;50.430;6.806;2023-05-14T01:22:00;66131.91;;;6.57;100.00
46614;BME280;32338;50.430;6.806;2023-05-14T01:24:26;66126.78;;;6.45;100.00
46614;BME280;32338;50.430;6.806;2023-05-14T01:26:56;66123.09;;;6.52;100.00
46614;BME280;32338;50.430;6.806;2023-05-14T01:29:25;66124.59;;;6.51;100.00
46614;BME280;32338;50.430;6.806;2023-05-14T01:31:54;66111.31;;;6.41;100.00
46614;BME280;32338;50.430;6.806;2023-05-14T01:34:23;66118.22;;;6.42;100.00
46614;BME280;32338;50.430;6.806;2023-05-14T01:36:52;66106.97;;;6.32;100.00
46614;BME280;32338;50.430;6.806;2023-05-14T01:39:21;66112.59;;;6.37;100.00
46614;BME280;32338;50.430;6.806;2023-05-14T01:41:50;66112.81;;;6.40;100.00
46614;BME280;32338;50.430;6.806;2023-05-14T01:44:17;66119.31;;;6.43;100.00
46614;BME280;32338;50.430;6.806;2023-05-14T01:46:44;66113.00;;;6.42;100.00
46614;BME280;32338;50.430;6.806;2023-05-14T01:49:10;66120.47;;;6.44;100.00
46614;BME280;32338;50.430;6.806;2023-05-14T01:51:37;66119.53;;;6.46;100.00
46614;BME280;32338;50.430;6.806;2023-05-14T01:54:04;66121.38;;;6.43;100.00
46614;BME280;32338;50.430;6.806;2023-05-14T01:56:31;66120.09;;;6.46;100.00
46614;BME280;32338;50.430;6.806;2023-05-14T01:58:58;66112.81;;;6.40;100.00
46614;BME280;32338;50.430;6.806;2023-05-14T02:01:25;66113.72;;;6.38;100.00
46614;BME280;32338;50.430;6.806;2023-05-14T02:03:51;66120.25;;;6.42;100.00
46614;BME280;32338;50.430;6.806;2023-05-14T02:06:18;66108.31;;;6.36;100.00
46614;BME280;32338;50.430;6.806;2023-05-14T02:08:44;66084.16;;;6.13;100.00
46614;BME280;32338;50.430;6.806;2023-05-14T02:11:11;66049.56;;;5.84;100.00
46614;BME280;32338;50.430;6.806;2023-05-14T02:13:39;66030.81;;;5.57;100.00
46614;BME280;32338;50.430;6.806;2023-05-14T02:16:06;66028.22;;;5.57;100.00
46614;BME280;32338;50.430;6.806;2023-05-14T02:18:32;66033.09;;;5.66;100.00
46614;BME280;32338;50.430;6.806;2023-05-14T02:20:59;66044.25;;;5.69;100.00
46614;BME280;32338;50.430;6.806;2023-05-14T02:23:26;66037.38;;;5.68;100.00
46614;BME280;32338;50.430;6.806;2023-05-14T02:25:53;66041.09;;;5.69;100.00
46614;BME280;32338;50.430;6.806;2023-05-14T02:28:19;66042.44;;;5.73;100.00
46614;BME280;32338;50.430;6.806;2023-05-14T02:30:47;66044.88;;;5.77;100.00
46614;BME280;32338;50.430;6.806;2023-05-14T02:33:14;66047.13;;;5.79;100.00
46614;BME280;32338;50.430;6.806;2023-05-14T02:35:40;66058.69;;;5.88;100.00
46614;BME280;32338;50.430;6.806;2023-05-14T02:38:07;66064.66;;;5.91;100.00
46614;BME280;32338;50.430;6.806;2023-05-14T02:40:35;66060.97;;;5.90;100.00
46614;BME280;32338;50.430;6.806;2023-05-14T02:43:02;66042.97;;;5.73;100.00
46614;BME280;32338;50.430;6.806;2023-05-14T02:45:28;66040.38;;;5.73;100.00
46614;BME280;32338;50.430;6.806;2023-05-14T02:47:56;66038.16;;;5.71;100.00
46614;BME280;32338;50.430;6.806;2023-05-14T02:50:23;66046.75;;;5.81;100.00
46614;BME280;32338;50.430;6.806;2023-05-14T02:52:49;66051.41;;;5.81;100.00
46614;BME280;32338;50.430;6.806;2023-05-14T02:55:16;66038.84;;;5.67;100.00
46614;BME280;32338;50.430;6.806;2023-05-14T02:57:42;66009.13;;;5.40;100.00
46614;BME280;32338;50.430;6.806;2023-05-14T03:00:10;65989.16;;;5.24;100.00
46614;BME280;32338;50.430;6.806;2023-05-14T03:02:37;65996.63;;;5.33;100.00
46614;BME280;32338;50.430;6.806;2023-05-14T03:05:05;66002.03;;;5.35;100.00
46614;BME280;32338;50.430;6.806;2023-05-14T03:07:32;65989.34;;;5.26;100.00
46614;BME280;32338;50.430;6.806;2023-05-14T03:09:59;66006.88;;;5.38;100.00
46614;BME280;32338;50.430;6.806;2023-05-14T03:12:25;66014.94;;;5.47;100.00
46614;BME280;32338;50.430;6.806;2023-05-14T03:14:52;66016.97;;;5.47;100.00
46614;BME280;32338;50.430;6.806;2023-05-14T03:17:18;66022.38;;;5.49;100.00
46614;BME280;32338;50.430;6.806;2023-05-14T03:19:45;66007.84;;;5.43;100.00
46614;BME280;32338;50.430;6.806;2023-05-14T03:22:13;66014.38;;;5.47;100.00
46614;BME280;32338;50.430;6.806;2023-05-14T03:24:40;66019.44;;;5.51;100.00
46614;BME280;32338;50.430;6.806;2023-05-14T03:27:06;66025.41;;;5.55;100.00
46614;BME280;32338;50.430;6.806;2023-05-14T03:29:33;66021.09;;;5.53;100.00
46614;BME280;32338;50.430;6.806;2023-05-14T03:31:59;66022.81;;;5.55;100.00
46614;BME280;32338;50.430;6.806;2023-05-14T03:34:26;66023.16;;;5.52;100.00
46614;BME280;32338;50.430;6.806;2023-05-14T03:36:53;66017.38;;;5.52;100.00
46614;BME280;32338;50.430;6.806;2023-05-14T03:39:21;66025.03;;;5.57;100.00
46614;BME280;32338;50.430;6.806;2023-05-14T03:41:48;66019.97;;;5.52;100.00
46614;BME280;32338;50.430;6.806;2023-05-14T03:44:14;66016.97;;;5.47;100.00
46614;BME280;32338;50.430;6.806;2023-05-14T03:46:41;66015.09;;;5.43;100.00
46614;BME280;32338;50.430;6.806;2023-05-14T03:49:07;65999.81;;;5.33;100.00
46614;BME280;32338;50.430;6.806;2023-05-14T03:51:34;65967.09;;;5.01;100.00
46614;BME280;32338;50.430;6.806;2023-05-14T03:54:03;65947.66;;;4.85;100.00
46614;BME280;32338;50.430;6.806;2023-05-14T03:56:31;65959.78;;;4.94;100.00
46614;BME280;32338;50.430;6.806;2023-05-14T03:58:57;65969.09;;;5.00;100.00
46614;BME280;32338;50.430;6.806;2023-05-14T04:01:24;65974.56;;;5.10;100.00
46614;BME280;32338;50.430;6.806;2023-05-14T04:03:50;65943.38;;;4.84;100.00
46614;BME280;32338;50.430;6.806;2023-05-14T04:06:17;65933.44;;;4.70;100.00
46614;BME280;32338;50.430;6.806;2023-05-14T04:08:44;65920.41;;;4.63;100.00
46614;BME280;32338;50.430;6.806;2023-05-14T04:11:10;65943.16;;;4.81;100.00
46614;BME280;32338;50.430;6.806;2023-05-14T04:13:39;65951.56;;;4.89;100.00
46614;BME280;32338;50.430;6.806;2023-05-14T04:16:05;65957.19;;;4.94;100.00
46614;BME280;32338;50.430;6.806;2023-05-14T04:18:32;65962.94;;;4.95;100.00
46614;BME280;32338;50.430;6.806;2023-05-14T04:20:59;65967.84;;;5.04;100.00
46614;BME280;32338;50.430;6.806;2023-05-14T04:23:26;65971.22;;;5.07;100.00
46614;BME280;32338;50.430;6.806;2023-05-14T04:25:53;65967.50;;;5.06;100.00
46614;BME280;32338;50.430;6.806;2023-05-14T04:28:19;65971.22;;;5.07;100.00
46614;BME280;32338;50.430;6.806;2023-05-14T04:30:48;65947.31;;;4.87;100.00
46614;BME280;32338;50.430;6.806;2023-05-14T04:33:15;65929.50;;;4.66;100.00
46614;BME280;32338;50.430;6.806;2023-05-14T04:35:43;65925.78;;;4.65;100.00
46614;BME280;32338;50.430;6.806;2023-05-14T04:38:10;65930.06;;;4.67;100.00
46614;BME280;32338;50.430;6.806;2023-05-14T04:40:38;65945.78;;;4.81;100.00
46614;BME280;32338;50.430;6.806;2023-05-14T04:43:05;65960.50;;;4.90;100.00
46614;BME280;32338;50.430;6.806;2023-05-14T04:45:33;65947.03;;;4.78;100.00
46614;BME280;32338;50.430;6.806;2023-05-14T04:48:01;65925.25;;;4.65;100.00
46614;BME280;32338;50.430;6.806;2023-05-14T04:50:28;65913.47;;;4.54;100.00
46614;BME280;32338;50.430;6.806;2023-05-14T04:52:54;65903.72;;;4.43;100.00
46614;BME280;32338;50.430;6.806;2023-05-14T04:55:21;65926.72;;;4.64;100.00
46614;BME280;32338;50.430;6.806;2023-05-14T04:57:48;65946.91;;;4.82;100.00
46614;BME280;32338;50.430;6.806;2023-05-14T05:00:15;65965.03;;;5.01;100.00
46614;BME280;32338;50.430;6.806;2023-05-14T05:02:42;65991.59;;;5.28;100.00
46614;BME280;32338;50.430;6.806;2023-05-14T05:05:10;66032.69;;;5.61;100.00
46614;BME280;32338;50.430;6.806;2023-05-14T05:07:36;66076.69;;;6.04;100.00
46614;BME280;32338;50.430;6.806;2023-05-14T05:10:03;66094.09;;;6.20;100.00
46614;BME280;32338;50.430;6.806;2023-05-14T05:12:30;66088.06;;;6.10;100.00
46614;BME280;32338;50.430;6.806;2023-05-14T05:14:57;66102.09;;;6.23;100.00
46614;BME280;32338;50.430;6.806;2023-05-14T05:17:23;66094.81;;;6.16;100.00
46614;BME280;32338;50.430;6.806;2023-05-14T05:19:50;66105.88;;;6.31;100.00
46614;BME280;32338;50.430;6.806;2023-05-14T05:22:18;66125.31;;;6.46;100.00
46614;BME280;32338;50.430;6.806;2023-05-14T05:24:45;66122.72;;;6.46;100.00
46614;BME280;32338;50.430;6.806;2023-05-14T05:27:11;66113.91;;;6.41;100.00
46614;BME280;32338;50.430;6.806;2023-05-14T05:29:38;66115.78;;;6.38;100.00
46614;BME280;32338;50.430;6.806;2023-05-14T05:32:06;66164.25;;;6.85;100.00
46614;BME280;32338;50.430;6.806;2023-05-14T05:34:33;66245.91;;;7.62;100.00
46614;BME280;32338;50.430;6.806;2023-05-14T05:37:00;66281.13;;;7.92;100.00
46614;BME280;32338;50.430;6.806;2023-05-14T05:39:28;66303.81;;;8.15;100.00
46614;BME280;32338;50.430;6.806;2023-05-14T05:41:59;66324.63;;;8.34;100.00
46614;BME280;32338;50.430;6.806;2023-05-14T05:44:25;66322.34;;;8.32;100.00
46614;BME280;32338;50.430;6.806;2023-05-14T05:46:52;66298.41;;;8.13;100.00
46614;BME280;32338;50.430;6.806;2023-05-14T05:49:20;66285.25;;;7.98;100.00
46614;BME280;32338;50.430;6.806;2023-05-14T05:51:47;66318.03;;;8.23;100.00
46614;BME280;32338;50.430;6.806;2023-05-14T05:54:13;66375.06;;;8.78;100.00
46614;BME280;32338;50.430;6.806;2023-05-14T05:56:41;66354.59;;;8.57;100.00
46614;BME280;32338;50.430;6.806;2023-05-14T05:59:08;66322.72;;;8.30;100.00
46614;BME280;32338;50.430;6.806;2023-05-14T06:01:34;66294.81;;;8.07;100.00
46614;BME280;32338;50.430;6.806;2023-05-14T06:04:01;66278.50;;;7.92;100.00
46614;BME280;32338;50.430;6.806;2023-05-14T06:06:29;66268.41;;;7.83;100.00
46614;BME280;32338;50.430;6.806;2023-05-14T06:08:57;66259.03;;;7.76;100.00
46614;BME280;32338;50.430;6.806;2023-05-14T06:11:23;66259.41;;;7.74;100.00
46614;BME280;32338;50.430;6.806;2023-05-14T06:13:52;66262.22;;;7.77;100.00
46614;BME280;32338;50.430;6.806;2023-05-14T06:16:19;66275.09;;;7.82;100.00
46614;BME280;32338;50.430;6.806;2023-05-14T06:18:45;66266.50;;;7.78;100.00
46614;BME280;32338;50.430;6.806;2023-05-14T06:21:12;66269.50;;;7.84;100.00
46614;BME280;32338;50.430;6.806;2023-05-14T06:23:38;66273.66;;;7.90;100.00
46614;BME280;32338;50.430;6.806;2023-05-14T06:26:05;66291.59;;;7.99;100.00
46614;BME280;32338;50.430;6.806;2023-05-14T06:28:31;66301.38;;;8.10;100.00
46614;BME280;32338;50.430;6.806;2023-05-14T06:30:59;66310.38;;;8.19;100.00
46614;BME280;32338;50.430;6.806;2023-05-14T06:33:26;66315.59;;;8.26;100.00
46614;BME280;32338;50.430;6.806;2023-05-14T06:35:55;66323.50;;;8.33;100.00
46614;BME280;32338;50.430;6.806;2023-05-14T06:38:22;66334.53;;;8.41;100.00
46614;BME280;32338;50.430;6.806;2023-05-14T06:40:49;66344.69;;;8.50;100.00
46614;BME280;32338;50.430;6.806;2023-05-14T06:43:15;66342.28;;;8.53;100.00
46614;BME280;32338;50.430;6.806;2023-05-14T06:45:42;66357.22;;;8.57;100.00
46614;BME280;32338;50.430;6.806;2023-05-14T06:48:10;66365.28;;;8.67;100.00
46614;BME280;32338;50.430;6.806;2023-05-14T06:50:37;66372.25;;;8.75;100.00
46614;BME280;32338;50.430;6.806;2023-05-14T06:53:03;66392.31;;;8.91;100.00
46614;BME280;32338;50.430;6.806;2023-05-14T06:55:30;66395.88;;;8.97;100.00
46614;BME280;32338;50.430;6.806;2023-05-14T06:57:57;66400.19;;;9.06;100.00
46614;BME280;32338;50.430;6.806;2023-05-14T07:00:23;66422.69;;;9.19;100.00
46614;BME280;32338;50.430;6.806;2023-05-14T07:02:50;66430.03;;;9.33;100.00
46614;BME280;32338;50.430;6.806;2023-05-14T07:05:18;66449.91;;;9.47;100.00
46614;BME280;32338;50.430;6.806;2023-05-14T07:07:44;66462.84;;;9.58;100.00
46614;BME280;32338;50.430;6.806;2023-05-14T07:10:11;66472.78;;;9.65;100.00
46614;BME280;32338;50.430;6.806;2023-05-14T07:12:38;66483.47;;;9.75;100.00
46614;BME280;32338;50.430;6.806;2023-05-14T07:15:06;66485.75;;;9.84;100.00
46614;BME280;32338;50.430;6.806;2023-05-14T07:17:32;66505.44;;;9.95;100.00
46614;BME280;32338;50.430;6.806;2023-05-14T07:19:59;66515.22;;;10.06;100.00
46614;BME280;32338;50.430;6.806;2023-05-14T07:22:27;66520.47;;;10.14;100.00
46614;BME280;32338;50.430;6.806;2023-05-14T07:24:53;66542.25;;;10.31;100.00
46614;BME280;32338;50.430;6.806;2023-05-14T07:27:20;66555.78;;;10.44;100.00
46614;BME280;32338;50.430;6.806;2023-05-14T07:29:48;66565.94;;;10.53;100.00
46614;BME280;32338;50.430;6.806;2023-05-14T07:32:14;66577.94;;;10.59;100.00
46614;BME280;32338;50.430;6.806;2023-05-14T07:34:41;66592.97;;;10.78;100.00
46614;BME280;32338;50.430;6.806;2023-05-14T07:37:08;66600.88;;;10.85;100.00
46614;BME280;32338;50.430;6.806;2023-05-14T07:39:36;66626.22;;;11.08;100.00
46614;BME280;32338;50.430;6.806;2023-05-14T07:42:03;66643.91;;;11.27;100.00
46614;BME280;32338;50.430;6.806;2023-05-14T07:44:30;66661.75;;;11.41;100.00
46614;BME280;32338;50.430;6.806;2023-05-14T07:46:56;66693.34;;;11.70;100.00
46614;BME280;32338;50.430;6.806;2023-05-14T07:49:23;66714.00;;;11.86;100.00
46614;BME280;32338;50.430;6.806;2023-05-14T07:51:49;66721.31;;;11.93;100.00
46614;BME280;32338;50.430;6.806;2023-05-14T07:54:16;66735.47;;;12.06;100.00
46614;BME280;32338;50.430;6.806;2023-05-14T07:56:44;66740.34;;;12.15;100.00
46614;BME280;32338;50.430;6.806;2023-05-14T07:59:10;66751.44;;;12.23;100.00
46614;BME280;32338;50.430;6.806;2023-05-14T08:01:37;66752.56;;;12.24;100.00
46614;BME280;32338;50.430;6.806;2023-05-14T08:04:03;66754.09;;;12.30;100.00
46614;BME280;32338;50.430;6.806;2023-05-14T08:06:30;66771.22;;;12.41;100.00
46614;BME280;32338;50.430;6.806;2023-05-14T08:08:56;66785.88;;;12.54;100.00
46614;BME280;32338;50.430;6.806;2023-05-14T08:11:23;66791.50;;;12.59;100.00
46614;BME280;32338;50.430;6.806;2023-05-14T08:13:51;66794.91;;;12.62;100.00
46614;BME280;32338;50.430;6.806;2023-05-14T08:16:18;66797.38;;;12.67;100.00
46614;BME280;32338;50.430;6.806;2023-05-14T08:18:44;66807.31;;;12.74;100.00
46614;BME280;32338;50.430;6.806;2023-05-14T08:21:11;66825.03;;;12.92;100.00
46614;BME280;32338;50.430;6.806;2023-05-14T08:23:37;66840.25;;;13.06;100.00
46614;BME280;32338;50.430;6.806;2023-05-14T08:26:04;66847.59;;;13.13;100.00
46614;BME280;32338;50.430;6.806;2023-05-14T08:28:31;66862.09;;;13.24;100.00
46614;BME280;32338;50.430;6.806;2023-05-14T08:30:59;66859.47;;;13.24;100.00
46614;BME280;32338;50.430;6.806;2023-05-14T08:33:25;66880.38;;;13.43;100.00
46614;BME280;32338;50.430;6.806;2023-05-14T08:35:52;66889.22;;;13.49;100.00
46614;BME280;32338;50.430;6.806;2023-05-14T08:38:19;66891.09;;;13.53;100.00
46614;BME280;32338;50.430;6.806;2023-05-14T08:40:47;66905.78;;;13.66;100.00
46614;BME280;32338;50.430;6.806;2023-05-14T08:43:18;66922.91;;;13.77;100.00
46614;BME280;32338;50.430;6.806;2023-05-14T08:45:51;66920.47;;;13.79;100.00
46614;BME280;32338;50.430;6.806;2023-05-14T08:48:21;66926.31;;;13.87;100.00
46614;BME280;32338;50.430;6.806;2023-05-14T08:50:48;66942.31;;;13.97;100.00
46614;BME280;32338;50.430;6.806;2023-05-14T08:53:15;66957.59;;;14.11;100.00
46614;BME280;32338;50.430;6.806;2023-05-14T08:55:43;66963.97;;;14.19;100.00
46614;BME280;32338;50.430;6.806;2023-05-14T08:58:11;66975.09;;;14.27;100.00
46614;BME280;32338;50.430;6.806;2023-05-14T09:00:37;66986.97;;;14.38;100.00
46614;BME280;32338;50.430;6.806;2023-05-14T09:03:04;67005.06;;;14.54;100.00
46614;BME280;32338;50.430;6.806;2023-05-14T09:05:33;67018.66;;;14.67;100.00
46614;BME280;32338;50.430;6.806;2023-05-14T09:08:00;67022.59;;;14.70;100.00
46614;BME280;32338;50.430;6.806;2023-05-14T09:10:26;67023.34;;;14.73;100.00
46614;BME280;32338;50.430;6.806;2023-05-14T09:12:53;67029.41;;;14.77;100.00
46614;BME280;32338;50.430;6.806;2023-05-14T09:15:19;67029.03;;;14.79;100.00
46614;BME280;32338;50.430;6.806;2023-05-14T09:17:46;67036.38;;;14.78;100.00
46614;BME280;32338;50.430;6.806;2023-05-14T09:20:13;67029.22;;;14.81;100.00
46614;BME280;32338;50.430;6.806;2023-05-14T09:22:41;67040.88;;;14.89;100.00
46614;BME280;32338;50.430;6.806;2023-05-14T09:25:09;67058.59;;;15.01;100.00
46614;BME280;32338;50.430;6.806;2023-05-14T09:27:36;67061.06;;;15.05;100.00
46614;BME280;32338;50.430;6.806;2023-05-14T09:30:05;67072.94;;;15.16;100.00
46614;BME280;32338;50.430;6.806;2023-05-14T09:32:38;67080.47;;;15.26;100.00
46614;BME280;32338;50.430;6.806;2023-05-14T09:35:09;67094.06;;;15.38;100.00
46614;BME280;32338;50.430;6.806;2023-05-14T09:37:36;67105.19;;;15.46;100.00
46614;BME280;32338;50.430;6.806;2023-05-14T09:40:07;67122.16;;;15.61;100.00
46614;BME280;32338;50.430;6.806;2023-05-14T09:42:34;67128.75;;;15.72;100.00
46614;BME280;32338;50.430;6.806;2023-05-14T09:45:00;67132.91;;;15.71;100.00
46614;BME280;32338;50.430;6.806;2023-05-14T09:47:28;67145.38;;;15.82;100.00
46614;BME280;32338;50.430;6.806;2023-05-14T09:49:55;67154.06;;;15.93;100.00
46614;BME280;32338;50.430;6.806;2023-05-14T09:52:22;67169.16;;;16.04;100.00
46614;BME280;32338;50.430;6.806;2023-05-14T09:54:50;67166.31;;;16.01;100.00
46614;BME280;32338;50.430;6.806;2023-05-14T09:57:18;67180.66;;;16.17;100.00
46614;BME280;32338;50.430;6.806;2023-05-14T09:59:45;67179.34;;;16.13;94.48
46614;BME280;32338;50.430;6.806;2023-05-14T10:02:16;67171.97;;;16.07;98.52
46614;BME280;32338;50.430;6.806;2023-05-14T10:04:47;67169.91;;;16.07;97.95
46614;BME280;32338;50.430;6.806;2023-05-14T10:07:16;67181.22;;;16.17;100.00
46614;BME280;32338;50.430;6.806;2023-05-14T10:09:44;67185.34;;;16.24;100.00
46614;BME280;32338;50.430;6.806;2023-05-14T10:12:12;67199.72;;;16.32;100.00
46614;BME280;32338;50.430;6.806;2023-05-14T10:14:46;67211.81;;;16.45;98.14
46614;BME280;32338;50.430;6.806;2023-05-14T10:17:15;67230.09;;;16.57;100.00
46614;BME280;32338;50.430;6.806;2023-05-14T10:19:47;67218.97;;;16.57;100.00
46614;BME280;32338;50.430;6.806;2023-05-14T10:22:18;67225.19;;;16.62;100.00
46614;BME280;32338;50.430;6.806;2023-05-14T10:24:47;67229.91;;;16.62;99.20
46614;BME280;32338;50.430;6.806;2023-05-14T10:27:17;67240.69;;;16.72;100.00
46614;BME280;32338;50.430;6.806;2023-05-14T10:29:50;67217.09;;;16.45;88.57
46614;BME280;32338;50.430;6.806;2023-05-14T10:32:19;67202.19;;;16.36;95.03
46614;BME280;32338;50.430;6.806;2023-05-14T10:34:46;67196.88;;;16.29;91.26
46614;BME280;32338;50.430;6.806;2023-05-14T10:37:14;67195.19;;;16.28;95.16
46614;BME280;32338;50.430;6.806;2023-05-14T10:39:42;67213.31;;;16.44;96.00
46614;BME280;32338;50.430;6.806;2023-05-14T10:42:10;67217.47;;;16.50;99.63
46614;BME280;32338;50.430;6.806;2023-05-14T10:44:51;67246.91;;;16.77;100.00
46614;BME280;32338;50.430;6.806;2023-05-14T10:47:18;67244.06;;;16.75;91.51
46614;BME280;32338;50.430;6.806;2023-05-14T10:49:45;67226.69;;;16.61;100.00
46614;BME280;32338;50.430;6.806;2023-05-14T10:52:16;67205.56;;;16.40;87.71
46614;BME280;32338;50.430;6.806;2023-05-14T10:54:53;67205.56;;;16.40;92.97
46614;BME280;32338;50.430;6.806;2023-05-14T10:57:21;67233.88;;;16.65;100.00
46614;BME280;32338;50.430;6.806;2023-05-14T10:59:51;67243.50;;;16.74;96.84
46614;BME280;32338;50.430;6.806;2023-05-14T11:02:20;67250.31;;;16.80;100.00
46614;BME280;32338;50.430;6.806;2023-05-14T11:04:55;67262.22;;;16.91;100.00
46614;BME280;32338;50.430;6.806;2023-05-14T11:07:26;67238.59;;;16.72;95.24
46614;BME280;32338;50.430;6.806;2023-05-14T11:09:58;67250.69;;;16.78;100.00
46614;BME280;32338;50.430;6.806;2023-05-14T11:12:26;67276.38;;;17.04;100.00
46614;BME280;32338;50.430;6.806;2023-05-14T11:14:56;67313.97;;;17.33;100.00
46614;BME280;32338;50.430;6.806;2023-05-14T11:17:23;67315.28;;;17.37;92.22
46614;BME280;32338;50.430;6.806;2023-05-14T11:19:50;67330.03;;;17.50;99.25
46614;BME280;32338;50.430;6.806;2023-05-14T11:22:16;67307.16;;;17.34;87.95
46614;BME280;32338;50.430;6.806;2023-05-14T11:24:43;67337.56;;;17.60;100.00
46614;BME280;32338;50.430;6.806;2023-05-14T11:27:10;67339.47;;;17.64;91.58
46614;BME280;32338;50.430;6.806;2023-05-14T11:29:37;67338.53;;;17.58;89.93
46614;BME280;32338;50.430;6.806;2023-05-14T11:32:06;67321.72;;;17.45;85.90
46614;BME280;32338;50.430;6.806;2023-05-14T11:34:32;67335.69;;;17.56;92.33
46614;BME280;32338;50.430;6.806;2023-05-14T11:37:02;67304.13;;;17.29;89.10
46614;BME280;32338;50.430;6.806;2023-05-14T11:39:28;67306.41;;;17.31;99.33
46614;BME280;32338;50.430;6.806;2023-05-14T11:41:56;67312.06;;;17.37;95.83
46614;BME280;32338;50.430;6.806;2023-05-14T11:44:23;67350.44;;;17.69;100.00
46614;BME280;32338;50.430;6.806;2023-05-14T11:46:53;67407.31;;;18.23;100.00
46614;BME280;32338;50.430;6.806;2023-05-14T11:49:22;67428.28;;;18.42;99.90
46614;BME280;32338;50.430;6.806;2023-05-14T11:51:49;67397.69;;;18.14;93.19
46614;BME280;32338;50.430;6.806;2023-05-14T11:54:15;67369.47;;;17.91;96.20
46614;BME280;32338;50.430;6.806;2023-05-14T11:56:49;67346.06;;;17.67;93.42
46614;BME280;32338;50.430;6.806;2023-05-14T11:59:16;67312.06;;;17.37;90.37
46614;BME280;32338;50.430;6.806;2023-05-14T12:01:43;67313.78;;;17.38;91.29
46614;BME280;32338;50.430;6.806;2023-05-14T12:04:10;67362.91;;;17.80;96.30
46614;BME280;32338;50.430;6.806;2023-05-14T12:06:39;67386.34;;;18.04;86.35
46614;BME280;32338;50.430;6.806;2023-05-14T12:09:06;67419.03;;;18.31;85.55
46614;BME280;32338;50.430;6.806;2023-05-14T12:11:34;67421.09;;;18.38;98.06
46614;BME280;32338;50.430;6.806;2023-05-14T12:14:09;67426.22;;;18.43;80.92
46614;BME280;32338;50.430;6.806;2023-05-14T12:16:38;67427.56;;;18.39;80.98
46614;BME280;32338;50.430;6.806;2023-05-14T12:19:07;67399.75;;;18.14;80.43
46614;BME280;32338;50.430;6.806;2023-05-14T12:21:34;67381.78;;;18.00;85.70
46614;BME280;32338;50.430;6.806;2023-05-14T12:24:02;67377.44;;;17.98;96.24
46614;BME280;32338;50.430;6.806;2023-05-14T12:26:31;67315.66;;;17.42;78.83
46614;BME280;32338;50.430;6.806;2023-05-14T12:28:59;67322.09;;;17.43;85.48
46614;BME280;32338;50.430;6.806;2023-05-14T12:31:29;67282.78;;;17.12;94.14
46614;BME280;32338;50.430;6.806;2023-05-14T12:33:56;67283.38;;;17.13;88.65
46614;BME280;32338;50.430;6.806;2023-05-14T12:36:23;67319.63;;;17.46;91.64
46614;BME280;32338;50.430;6.806;2023-05-14T12:38:55;67386.16;;;18.02;96.44
46614;BME280;32338;50.430;6.806;2023-05-14T12:41:23;67375.16;;;17.96;81.05
46614;BME280;32338;50.430;6.806;2023-05-14T12:43:50;67322.09;;;17.43;75.13
46614;BME280;32338;50.430;6.806;2023-05-14T12:46:16;67327.16;;;17.55;85.04
46614;BME280;32338;50.430;6.806;2023-05-14T12:48:43;67317.75;;;17.42;82.14
46614;BME280;32338;50.430;6.806;2023-05-14T12:51:10;67332.28;;;17.53;91.36
46614;BME280;32338;50.430;6.806;2023-05-14T12:53:37;67307.94;;;17.30;80.50
46614;BME280;32338;50.430;6.806;2023-05-14T12:56:04;67306.97;;;17.32;85.21
46614;BME280;32338;50.430;6.806;2023-05-14T12:58:32;67311.50;;;17.36;88.85